createdAt,value
2018-02-17T00:01:11.684Z,15.83
2018-02-17T00:03:40.000Z,17.10
2018-02-17T00:06:09.111Z,20.87
2018-02-17T00:08:37.468Z,12.63
2018-02-17T00:11:05.748Z,12.03
2018-02-17T00:13:34.049Z,12.53
2018-02-17T00:16:02.339Z,14.83
2018-02-17T00:18:30.665Z,14.80
2018-02-17T00:20:58.948Z,13.67
2018-02-17T00:23:27.218Z,17.10
2018-02-17T00:25:55.497Z,16.03
2018-02-17T00:28:23.766Z,19.93
2018-02-17T00:30:53.175Z,18.07
2018-02-17T00:33:22.208Z,19.90
2018-02-17T00:35:50.488Z,24.57
2018-02-17T00:38:19.511Z,35.07
2018-02-17T00:40:47.797Z,30.23
2018-02-17T00:43:16.903Z,56.57
2018-02-17T00:45:45.187Z,68.43
2018-02-17T00:48:13.472Z,30.83
2018-02-17T00:50:42.610Z,38.97
2018-02-17T00:53:10.946Z,67.27
2018-02-17T00:55:39.999Z,27.73
2018-02-17T00:58:08.269Z,46.60
2018-02-17T01:00:36.552Z,64.47
2018-02-17T01:03:05.594Z,104.73
2018-02-17T01:05:33.845Z,123.57
2018-02-17T01:08:02.900Z,115.03
2018-02-17T01:10:31.181Z,94.77
2018-02-17T01:12:59.579Z,120.70
2018-02-17T01:15:27.853Z,38.13
2018-02-17T01:17:56.131Z,70.27
2018-02-17T01:20:25.151Z,49.67
2018-02-17T01:22:53.434Z,53.47
2018-02-17T01:25:22.464Z,76.77
2018-02-17T01:27:50.744Z,97.20
2018-02-17T01:30:19.008Z,150.17
2018-02-17T01:32:48.066Z,56.90
2018-02-17T01:35:16.414Z,71.23
2018-02-17T01:37:44.786Z,151.70
2018-02-17T01:40:13.133Z,169.70
2018-02-17T01:42:41.403Z,109.67
2018-02-17T01:45:09.665Z,123.57
2018-02-17T01:47:38.707Z,144.77
2018-02-17T01:50:38.799Z,92.23
2018-02-17T01:53:07.309Z,178.67
2018-02-17T01:55:36.348Z,90.93
2018-02-17T01:58:04.636Z,136.27
2018-02-17T02:00:32.916Z,115.67
2018-02-17T02:03:02.014Z,87.13
2018-02-17T02:05:31.068Z,41.83
2018-02-17T02:07:59.476Z,27.60
2018-02-17T02:10:27.760Z,185.53
2018-02-17T02:12:56.041Z,58.70
2018-02-17T02:15:24.320Z,67.00
2018-02-17T02:17:52.595Z,31.63
2018-02-17T02:20:20.861Z,71.10
2018-02-17T02:22:49.920Z,51.30
2018-02-17T02:25:18.183Z,25.37
2018-02-17T02:27:46.500Z,35.00
2018-02-17T02:30:14.809Z,41.47
2018-02-17T02:32:43.978Z,28.50
2018-02-17T02:35:12.327Z,51.73
2018-02-17T02:37:40.663Z,52.33
2018-02-17T02:40:08.927Z,63.30
2018-02-17T02:42:37.960Z,83.07
2018-02-17T02:45:06.251Z,51.97
2018-02-17T02:47:34.531Z,60.60
2018-02-17T02:50:02.814Z,30.77
2018-02-17T02:52:31.160Z,47.93
2018-02-17T02:54:59.457Z,29.43
2018-02-17T02:57:27.783Z,25.93
2018-02-17T02:59:56.085Z,55.63
2018-02-17T03:02:24.343Z,38.27
2018-02-17T03:04:53.372Z,46.30
2018-02-17T03:07:21.672Z,46.13
2018-02-17T03:09:49.956Z,20.77
2018-02-17T03:12:18.221Z,44.63
2018-02-17T03:14:47.269Z,38.43
2018-02-17T03:17:15.541Z,40.53
2018-02-17T03:19:43.824Z,19.17
2018-02-17T03:22:12.200Z,31.90
2018-02-17T03:24:41.387Z,21.57
2018-02-17T03:27:10.474Z,20.93
2018-02-17T03:29:38.755Z,27.23
2018-02-17T03:32:07.019Z,20.87
2018-02-17T03:34:35.296Z,24.37
2018-02-17T03:37:03.544Z,25.97
2018-02-17T03:39:31.853Z,49.83
2018-02-17T03:42:00.949Z,27.93
2018-02-17T03:44:29.217Z,30.10
2018-02-17T03:46:57.476Z,27.10
2018-02-17T03:49:25.781Z,31.10
2018-02-17T03:51:54.036Z,31.23
2018-02-17T03:54:22.303Z,28.77
2018-02-17T03:56:50.571Z,24.40
2018-02-17T03:59:18.879Z,27.00
2018-02-17T04:01:47.900Z,31.10
2018-02-17T04:04:16.973Z,30.00
2018-02-17T04:06:45.265Z,26.87
2018-02-17T04:09:14.329Z,32.70
2018-02-17T04:11:42.665Z,28.97
2018-02-17T04:14:11.103Z,32.23
2018-02-17T04:16:39.372Z,32.60
2018-02-17T04:19:08.402Z,34.33
2018-02-17T04:21:36.664Z,37.53
2018-02-17T04:24:05.747Z,36.23
2018-02-17T04:26:34.028Z,33.07
2018-02-17T04:29:02.276Z,35.83
2018-02-17T04:31:30.575Z,35.70
2018-02-17T04:33:58.838Z,44.57
2018-02-17T04:36:27.111Z,37.87
2018-02-17T04:38:56.137Z,42.30
2018-02-17T04:41:25.792Z,36.20
2018-02-17T04:44:02.544Z,34.20
2018-02-17T04:46:34.528Z,31.00
2018-02-17T04:49:02.784Z,41.30
2018-02-17T04:54:38.860Z,30.90
2018-02-17T04:57:09.692Z,32.67
2018-02-17T04:59:44.376Z,33.57
2018-02-17T05:02:18.392Z,38.73
2018-02-17T05:04:46.750Z,34.20
2018-02-17T05:07:15.766Z,36.20
2018-02-17T05:09:44.799Z,32.13
2018-02-17T05:12:13.141Z,40.63
2018-02-17T05:14:44.937Z,34.73
2018-02-17T05:17:19.418Z,34.10
2018-02-17T05:19:54.088Z,34.53
2018-02-17T05:22:22.736Z,38.47
2018-02-17T05:27:57.278Z,38.17
2018-02-17T05:30:26.526Z,29.17
2018-02-17T05:33:15.424Z,33.20
2018-02-17T05:35:44.061Z,30.63
2018-02-17T05:38:12.357Z,28.73
2018-02-17T05:41:01.339Z,35.97
2018-02-17T05:43:29.641Z,32.83
2018-02-17T05:46:04.187Z,26.23
2018-02-17T05:48:34.131Z,30.00
2018-02-17T05:51:03.160Z,27.43
2018-02-17T05:53:31.477Z,26.47
2018-02-17T05:55:59.746Z,31.10
2018-02-17T05:58:28.027Z,31.77
2018-02-17T06:00:56.296Z,26.27
2018-02-17T06:03:25.332Z,27.03
2018-02-17T06:05:53.601Z,32.63
2018-02-17T06:08:21.875Z,29.47
2018-02-17T06:10:50.904Z,31.43
2018-02-17T06:13:19.185Z,25.03
2018-02-17T06:15:47.444Z,28.00
2018-02-17T06:18:16.551Z,22.60
2018-02-17T06:20:46.172Z,26.90
2018-02-17T06:23:14.476Z,29.43
2018-02-17T06:25:42.727Z,24.60
2018-02-17T06:28:11.023Z,27.47
2018-02-17T06:30:39.289Z,28.33
2018-02-17T06:33:07.573Z,24.90
2018-02-17T06:35:36.045Z,25.87
2018-02-17T06:38:04.499Z,28.83
2018-02-17T06:40:33.138Z,25.77
2018-02-17T06:43:01.514Z,32.07
2018-02-17T06:45:30.730Z,30.03
2018-02-17T06:47:59.366Z,28.43
2018-02-17T06:50:27.647Z,25.17
2018-02-17T06:52:55.907Z,24.80
2018-02-17T06:55:24.292Z,22.43
2018-02-17T06:57:52.689Z,29.40
2018-02-17T07:00:20.980Z,26.80
2018-02-17T07:02:49.344Z,24.37
2018-02-17T07:05:17.686Z,25.87
2018-02-17T07:07:46.199Z,26.53
2018-02-17T07:10:14.632Z,26.30
2018-02-17T07:12:42.928Z,25.80
2018-02-17T07:15:12.938Z,28.67
2018-02-17T07:17:41.287Z,23.97
2018-02-17T07:20:09.724Z,30.67
2018-02-17T07:22:38.802Z,22.63
2018-02-17T07:25:07.167Z,23.83
2018-02-17T07:27:36.746Z,20.57
2018-02-17T07:30:06.261Z,22.83
2018-02-17T07:32:34.626Z,25.30
2018-02-17T07:35:03.776Z,22.63
2018-02-17T07:37:32.039Z,22.70
2018-02-17T07:40:00.326Z,25.17
2018-02-17T07:42:28.618Z,19.70
2018-02-17T07:44:59.926Z,22.27
2018-02-17T07:47:28.550Z,24.27
2018-02-17T07:49:57.011Z,28.77
2018-02-17T07:52:25.783Z,20.80
2018-02-17T07:54:55.357Z,19.93
2018-02-17T07:57:23.668Z,18.07
2018-02-17T07:59:51.963Z,25.67
2018-02-17T08:02:20.557Z,18.10
2018-02-17T08:04:49.260Z,19.20
2018-02-17T08:07:17.860Z,23.13
2018-02-17T08:09:46.463Z,22.13
2018-02-17T08:12:15.086Z,23.17
2018-02-17T08:14:44.232Z,24.00
2018-02-17T08:17:13.431Z,20.60
2018-02-17T08:19:42.501Z,19.27
2018-02-17T08:22:11.130Z,23.67
2018-02-17T08:24:39.710Z,20.80
2018-02-17T08:27:09.308Z,22.33
2018-02-17T08:29:38.380Z,19.90
2018-02-17T08:32:07.000Z,25.50
2018-02-17T08:34:35.543Z,21.23
2018-02-17T08:37:04.223Z,18.27
2018-02-17T08:39:33.841Z,19.73
2018-02-17T08:42:03.283Z,22.67
2018-02-17T08:44:31.814Z,25.77
2018-02-17T08:47:00.187Z,21.23
2018-02-17T08:49:28.555Z,24.17
2018-02-17T08:51:56.907Z,20.50
2018-02-17T08:54:25.493Z,22.33
2018-02-17T08:56:53.805Z,20.33
2018-02-17T08:59:22.897Z,20.80
2018-02-17T09:01:51.192Z,21.50
2018-02-17T09:04:19.628Z,23.17
2018-02-17T09:06:48.148Z,20.30
2018-02-17T09:09:16.472Z,22.63
2018-02-17T09:11:44.810Z,21.07
2018-02-17T09:14:13.775Z,21.33
2018-02-17T09:16:43.852Z,23.57
2018-02-17T09:19:12.417Z,22.23
2018-02-17T09:21:41.234Z,26.90
2018-02-17T09:24:09.500Z,19.93
2018-02-17T09:26:39.106Z,23.40
2018-02-17T09:29:07.584Z,25.00
2018-02-17T09:31:36.114Z,20.80
2018-02-17T09:34:04.439Z,18.53
2018-02-17T09:36:32.717Z,21.70
2018-02-17T09:39:01.632Z,20.37
2018-02-17T09:41:31.463Z,18.00
2018-02-17T09:44:01.092Z,22.13
2018-02-17T09:46:29.811Z,16.63
2018-02-17T09:48:58.329Z,19.93
2018-02-17T09:51:27.861Z,21.77
2018-02-17T09:53:56.569Z,23.63
2018-02-17T09:56:25.080Z,22.17
2018-02-17T09:58:53.585Z,20.53
2018-02-17T10:01:22.022Z,24.10
2018-02-17T10:03:50.564Z,21.67
2018-02-17T10:06:18.834Z,18.77
2018-02-17T10:08:47.299Z,18.97
2018-02-17T10:11:15.617Z,17.90
2018-02-17T10:13:44.045Z,16.77
2018-02-17T10:16:13.252Z,19.23
2018-02-17T10:18:41.793Z,21.50
2018-02-17T10:21:11.061Z,22.67
2018-02-17T10:23:39.738Z,16.87
2018-02-17T10:26:09.215Z,18.03
2018-02-17T10:28:37.988Z,19.47
2018-02-17T10:31:06.496Z,19.27
2018-02-17T10:33:35.030Z,20.17
2018-02-17T10:36:03.516Z,17.80
2018-02-17T10:38:32.643Z,19.07
2018-02-17T10:41:00.938Z,20.83
2018-02-17T10:43:29.293Z,19.13
2018-02-17T10:45:58.455Z,21.03
2018-02-17T10:48:26.752Z,16.30
2018-02-17T10:50:55.152Z,15.50
2018-02-17T10:53:23.618Z,16.00
2018-02-17T10:55:52.041Z,17.23
2018-02-17T10:58:20.539Z,16.23
2018-02-17T11:00:49.095Z,16.40
2018-02-17T11:03:17.490Z,17.80
2018-02-17T11:05:45.760Z,20.10
2018-02-17T11:08:14.083Z,17.83
2018-02-17T11:10:42.402Z,16.83
2018-02-17T11:13:10.945Z,17.90
2018-02-17T11:15:39.434Z,19.13
2018-02-17T11:18:07.730Z,17.30
2018-02-17T11:20:36.089Z,16.53
2018-02-17T11:23:04.671Z,17.93
2018-02-17T11:25:32.948Z,20.80
2018-02-17T11:28:01.352Z,19.30
2018-02-17T11:30:30.027Z,14.37
2018-02-17T11:32:58.720Z,16.03
2018-02-17T11:35:26.998Z,18.87
2018-02-17T11:37:55.243Z,17.57
2018-02-17T11:40:23.551Z,20.60
2018-02-17T11:42:51.854Z,14.77
2018-02-17T11:45:20.168Z,13.90
2018-02-17T11:47:48.633Z,14.83
2018-02-17T11:50:17.205Z,16.50
2018-02-17T11:52:46.812Z,11.63
2018-02-17T11:55:15.209Z,12.60
2018-02-17T11:57:43.560Z,11.50
2018-02-17T12:00:12.248Z,16.40
2018-02-17T12:02:41.341Z,14.10
2018-02-17T12:05:10.761Z,13.30
2018-02-17T12:07:39.199Z,11.70
2018-02-17T12:10:07.645Z,13.73
2018-02-17T12:12:36.067Z,10.43
2018-02-17T12:15:04.415Z,10.87
2018-02-17T12:17:32.757Z,11.97
2018-02-17T12:20:01.240Z,10.07
2018-02-17T12:22:29.702Z,11.27
2018-02-17T12:24:58.928Z,11.90
2018-02-17T12:27:27.266Z,12.73
2018-02-17T12:29:56.064Z,11.03
2018-02-17T12:32:24.401Z,12.30
2018-02-17T12:34:52.762Z,11.87
2018-02-17T12:37:21.956Z,12.83
2018-02-17T12:39:50.421Z,12.03
2018-02-17T12:42:18.751Z,10.40
2018-02-17T12:44:48.555Z,12.57
2018-02-17T12:47:16.962Z,16.60
2018-02-17T12:49:45.722Z,14.83
2018-02-17T12:52:14.037Z,15.83
2018-02-17T12:54:42.390Z,10.37
2018-02-17T12:57:10.732Z,14.80
2018-02-17T12:59:38.999Z,11.53
2018-02-17T13:02:07.406Z,15.77
2018-02-17T13:04:35.738Z,15.37
2018-02-17T13:07:04.061Z,13.10
2018-02-17T13:09:32.400Z,18.07
2018-02-17T13:12:01.501Z,14.07
2018-02-17T13:14:30.812Z,12.37
2018-02-17T13:16:59.275Z,12.60
2018-02-17T13:19:28.371Z,15.33
2018-02-17T13:21:56.841Z,13.07
2018-02-17T13:24:26.601Z,12.70
2018-02-17T13:26:55.594Z,16.70
2018-02-17T13:29:24.603Z,16.83
2018-02-17T13:31:52.957Z,13.43
2018-02-17T13:34:22.142Z,13.23
2018-02-17T13:36:50.461Z,13.97
2018-02-17T13:39:18.827Z,13.87
2018-02-17T13:41:47.134Z,10.90
2018-02-17T13:44:16.274Z,11.60
2018-02-17T13:46:45.436Z,11.50
2018-02-17T13:49:13.964Z,11.03
2018-02-17T13:51:42.848Z,10.27
2018-02-17T13:54:11.467Z,11.83
2018-02-17T13:56:40.464Z,11.40
2018-02-17T13:59:09.080Z,12.47
2018-02-17T14:01:37.358Z,8.87
2018-02-17T14:04:05.688Z,7.80
2018-02-17T14:06:34.287Z,8.87
2018-02-17T14:09:02.588Z,8.43
2018-02-17T14:11:31.065Z,12.23
2018-02-17T14:13:59.731Z,6.73
2018-02-17T14:16:28.002Z,8.50
2018-02-17T14:18:57.144Z,10.30
2018-02-17T14:21:26.231Z,6.50
2018-02-17T14:23:54.500Z,7.47
2018-02-17T14:26:22.824Z,8.33
2018-02-17T14:28:51.132Z,8.97
2018-02-17T14:31:19.388Z,6.67
2018-02-17T14:33:47.750Z,6.47
2018-02-17T14:36:16.193Z,7.27
2018-02-17T14:38:44.492Z,7.40
2018-02-17T14:41:12.935Z,5.43
2018-02-17T14:43:42.021Z,5.93
2018-02-17T14:46:10.399Z,5.40
2018-02-17T14:48:39.079Z,6.30
2018-02-17T14:51:07.978Z,4.03
2018-02-17T14:53:36.327Z,4.57
2018-02-17T14:56:05.424Z,4.80
2018-02-17T14:58:33.744Z,4.23
2018-02-17T15:01:02.074Z,4.40
2018-02-17T15:03:30.439Z,5.40
2018-02-17T15:05:58.971Z,6.00
2018-02-17T15:08:27.457Z,8.73
2018-02-17T15:10:55.843Z,4.17
2018-02-17T15:13:24.180Z,5.00
2018-02-17T15:15:53.450Z,4.27
2018-02-17T15:18:21.943Z,4.87
2018-02-17T15:20:50.469Z,4.10
2018-02-17T15:23:18.823Z,6.10
2018-02-17T15:25:47.161Z,4.70
2018-02-17T15:28:15.763Z,6.43
2018-02-17T15:30:45.061Z,7.03
2018-02-17T15:33:13.391Z,5.37
2018-02-17T15:35:41.960Z,6.67
2018-02-17T15:38:11.028Z,7.47
2018-02-17T15:40:39.345Z,7.80
2018-02-17T15:43:07.869Z,8.33
2018-02-17T15:45:36.500Z,8.73
2018-02-17T15:48:05.176Z,8.27
2018-02-17T15:50:33.751Z,7.43
2018-02-17T15:53:02.819Z,11.00
2018-02-17T15:55:31.809Z,7.87
2018-02-17T15:58:00.283Z,7.50
2018-02-17T16:00:28.766Z,10.93
2018-02-17T16:02:57.357Z,13.27
2018-02-17T16:05:26.462Z,8.80
2018-02-17T16:07:55.593Z,10.03
2018-02-17T16:10:23.905Z,11.50
2018-02-17T16:12:52.271Z,10.83
2018-02-17T16:15:20.613Z,10.73
2018-02-17T16:17:48.888Z,12.27
2018-02-17T16:20:17.471Z,11.13
2018-02-17T16:22:46.115Z,12.97
2018-02-17T16:25:15.437Z,13.07
2018-02-17T16:27:44.966Z,12.57
2018-02-17T16:30:14.390Z,13.63
2018-02-17T16:32:42.761Z,17.87
2018-02-17T16:35:12.952Z,14.53
2018-02-17T16:37:41.584Z,15.07
2018-02-17T16:40:10.799Z,13.03
2018-02-17T16:42:40.159Z,14.97
2018-02-17T16:45:08.910Z,13.47
2018-02-17T16:47:38.334Z,15.20
2018-02-17T16:50:07.541Z,18.07
2018-02-17T16:52:36.674Z,16.67
2018-02-17T16:55:05.021Z,14.37
2018-02-17T16:57:33.677Z,16.73
2018-02-17T17:00:02.028Z,16.77
2018-02-17T17:02:31.178Z,19.20
2018-02-17T17:04:59.804Z,15.53
2018-02-17T17:07:28.378Z,14.87
2018-02-17T17:09:57.864Z,16.47
2018-02-17T17:12:27.162Z,15.23
2018-02-17T17:14:55.430Z,17.67
2018-02-17T17:17:23.756Z,18.97
2018-02-17T17:19:52.968Z,15.20
2018-02-17T17:22:22.422Z,15.20
2018-02-17T17:24:51.635Z,23.00
2018-02-17T17:27:21.228Z,17.60
2018-02-17T17:29:49.606Z,20.93
2018-02-17T17:32:17.998Z,19.40
2018-02-17T17:34:46.278Z,21.10
2018-02-17T17:37:15.160Z,20.03
2018-02-17T17:39:43.547Z,14.63
2018-02-17T17:42:12.314Z,18.97
2018-02-17T17:44:40.770Z,18.10
2018-02-17T17:47:09.370Z,16.27
2018-02-17T17:49:37.668Z,16.27
2018-02-17T17:52:06.097Z,21.77
2018-02-17T17:54:34.814Z,20.47
2018-02-17T17:57:03.156Z,18.27
2018-02-17T17:59:31.525Z,18.03
2018-02-17T18:02:00.867Z,16.73
2018-02-17T18:04:29.140Z,18.03
2018-02-17T18:06:58.219Z,24.03
2018-02-17T18:09:26.670Z,18.53
2018-02-17T18:11:56.498Z,21.40
2018-02-17T18:14:24.895Z,21.30
2018-02-17T18:16:53.201Z,22.47
2018-02-17T18:19:21.510Z,21.33
2018-02-17T18:21:50.613Z,28.03
2018-02-17T18:24:18.937Z,19.73
2018-02-17T18:26:48.434Z,23.13
2018-02-17T18:29:16.751Z,21.97
2018-02-17T18:31:45.837Z,26.90
2018-02-17T18:34:14.169Z,27.50
2018-02-17T18:36:42.484Z,22.80
2018-02-17T18:39:11.780Z,28.57
2018-02-17T18:41:40.149Z,25.30
2018-02-17T18:44:08.523Z,30.17
2018-02-17T18:46:36.865Z,28.03
2018-02-17T18:49:05.207Z,27.30
2018-02-17T18:51:34.640Z,28.13
2018-02-17T18:54:03.888Z,25.83
2018-02-17T18:56:32.257Z,32.03
2018-02-17T18:59:00.754Z,29.50
2018-02-17T19:01:29.538Z,27.40
2018-02-17T19:03:58.096Z,24.53
2018-02-17T19:06:26.745Z,30.90
2018-02-17T19:08:55.185Z,28.17
2018-02-17T19:11:23.474Z,29.37
2018-02-17T19:13:51.785Z,37.73
2018-02-17T19:16:20.985Z,29.57
2018-02-17T19:18:50.165Z,36.37
2018-02-17T19:21:18.443Z,34.03
2018-02-17T19:23:46.985Z,28.40
2018-02-17T19:26:16.469Z,32.87
2018-02-17T19:28:44.827Z,38.03
2018-02-17T19:31:13.455Z,31.00
2018-02-17T19:33:43.145Z,35.73
2018-02-17T19:36:11.831Z,30.30
2018-02-17T19:38:40.338Z,31.30
2018-02-17T19:41:08.863Z,28.23
2018-02-17T19:43:37.336Z,30.53
2018-02-17T19:46:05.829Z,29.70
2018-02-17T19:48:34.343Z,33.53
2018-02-17T19:51:03.631Z,29.40
2018-02-17T19:53:31.999Z,25.87
2018-02-17T19:56:01.457Z,26.83
2018-02-17T19:58:30.087Z,28.00
2018-02-17T20:00:58.771Z,27.37
2018-02-17T20:03:27.164Z,31.27
2018-02-17T20:05:55.584Z,28.33
2018-02-17T20:08:23.924Z,30.20
2018-02-17T20:10:52.485Z,34.37
2018-02-17T20:13:20.826Z,32.00
2018-02-17T20:15:49.304Z,27.83
2018-02-17T20:18:17.740Z,29.30
2018-02-17T20:20:46.366Z,30.63
2018-02-17T20:23:14.908Z,32.00
2018-02-17T20:25:43.554Z,28.60
2018-02-17T20:28:12.904Z,31.33
2018-02-17T20:30:41.710Z,32.07
2018-02-17T20:33:10.182Z,28.83
2018-02-17T20:35:38.674Z,30.47
2018-02-17T20:38:06.992Z,31.67
2018-02-17T20:40:35.361Z,35.43
2018-02-17T20:43:03.953Z,31.50
2018-02-17T20:45:32.558Z,29.10
2018-02-17T20:48:01.177Z,30.50
2018-02-17T20:50:29.504Z,26.97
2018-02-17T20:52:57.800Z,28.70
2018-02-17T20:55:26.192Z,28.67
2018-02-17T20:57:55.511Z,28.53
2018-02-17T21:00:24.917Z,27.07
2018-02-17T21:02:53.287Z,31.33
2018-02-17T21:05:21.863Z,24.93
2018-02-17T21:07:50.446Z,27.27
2018-02-17T21:10:20.833Z,30.63
2018-02-17T21:12:49.466Z,32.93
2018-02-17T21:15:17.915Z,30.10
2018-02-17T21:17:46.339Z,26.50
2018-02-17T21:20:15.660Z,27.00
2018-02-17T21:22:45.153Z,21.83
2018-02-17T21:25:15.473Z,29.17
2018-02-17T21:27:43.976Z,27.33
2018-02-17T21:30:12.641Z,26.67
2018-02-17T21:32:41.061Z,24.80
2018-02-17T21:35:09.568Z,30.83
2018-02-17T21:37:37.926Z,30.63
2018-02-17T21:40:06.385Z,29.63
2018-02-17T21:42:34.846Z,29.27
2018-02-17T21:45:03.429Z,34.00
2018-02-17T21:47:32.606Z,31.57
2018-02-17T21:50:00.995Z,32.07
2018-02-17T21:52:29.599Z,32.17
2018-02-17T21:54:57.980Z,29.27
2018-02-17T21:57:27.136Z,31.80
2018-02-17T21:59:55.513Z,26.90
2018-02-17T22:02:23.920Z,28.13
2018-02-17T22:04:53.534Z,31.73
2018-02-17T22:07:22.819Z,27.63
2018-02-17T22:09:56.649Z,27.17
2018-02-17T22:12:25.012Z,31.30
2018-02-17T22:14:54.115Z,26.50
2018-02-17T22:17:22.436Z,30.50
2018-02-17T22:19:50.911Z,28.03
2018-02-17T22:22:19.267Z,28.30
2018-02-17T22:24:48.563Z,28.97
2018-02-17T22:27:17.055Z,27.67
2018-02-17T22:29:45.397Z,26.77
2018-02-17T22:32:13.915Z,31.37
2018-02-17T22:34:42.429Z,27.97
2018-02-17T22:37:10.861Z,25.87
2018-02-17T22:39:40.155Z,25.17
2018-02-17T22:42:08.828Z,24.87
2018-02-17T22:44:37.308Z,32.17
2018-02-17T22:47:05.896Z,24.17
2018-02-17T22:49:34.548Z,27.43
2018-02-17T22:52:02.962Z,28.47
2018-02-17T22:54:31.343Z,28.43
2018-02-17T22:57:00.478Z,32.17
2018-02-17T22:59:28.767Z,24.67
2018-02-17T23:01:57.185Z,24.87
2018-02-17T23:04:26.344Z,29.83
2018-02-17T23:06:54.649Z,32.57
2018-02-17T23:09:23.781Z,28.03
2018-02-17T23:11:52.062Z,27.17
2018-02-17T23:14:20.373Z,26.83
2018-02-17T23:16:48.674Z,29.23
2018-02-17T23:19:16.979Z,25.67
2018-02-17T23:21:45.350Z,27.00
2018-02-17T23:24:13.632Z,25.63
2018-02-17T23:26:41.957Z,29.47
2018-02-17T23:29:11.067Z,27.50
2018-02-17T23:31:39.385Z,27.10
2018-02-17T23:34:07.661Z,30.23
2018-02-17T23:36:36.711Z,26.67
2018-02-17T23:39:05.665Z,27.07
2018-02-17T23:41:34.753Z,26.43
2018-02-17T23:44:03.078Z,28.43
2018-02-17T23:46:31.399Z,23.30
2018-02-17T23:49:00.120Z,25.90
2018-02-17T23:51:28.430Z,27.03
2018-02-17T23:53:56.740Z,27.73
2018-02-17T23:56:25.780Z,27.77
2018-02-17T23:58:54.055Z,26.37
